Time;durP1;ratioP1;P1;durP2;ratioP2;P2;SDS_P1;SDS_P2;PMS_P1;PMS_P2;Temp;Humidity;BMP_temperature;BMP_pressure;BME280_temperature;BME280_humidity;BME280_pressure;Samples;Min_cycle;Max_cycle;Signal;HPM_P1;HPM_P2
2022/09/05 00:02:03;;;;;;;8.00;3.58;;;20.40;99.90;;;;;;5012196;28;20507;-63
2022/09/05 00:04:31;;;;;;;4.25;3.53;;;20.40;99.90;;;;;;5018432;28;20092;-63
2022/09/05 00:07:24;;;;;;;4.65;3.85;;;20.30;99.90;;;;;;5012834;28;20049;-64
2022/09/05 00:10:14;;;;;;;6.90;3.95;;;20.30;99.90;;;;;;5012901;28;20104;-63
2022/09/05 00:12:41;;;;;;;6.88;3.60;;;20.20;99.90;;;;;;5012371;28;20050;-63
2022/09/05 00:15:38;;;;;;;5.55;3.80;;;20.20;99.90;;;;;;5020139;28;20116;-64
2022/09/05 00:18:33;;;;;;;6.40;3.53;;;20.20;99.90;;;;;;5012780;28;20143;-63
2022/09/05 00:21:26;;;;;;;5.03;3.53;;;20.20;99.90;;;;;;5012281;28;20474;-63
2022/09/05 00:24:03;;;;;;;5.72;4.03;;;20.10;99.90;;;;;;5013755;28;20026;-63
2022/09/05 00:26:51;;;;;;;6.18;3.72;;;20.10;99.90;;;;;;5018685;28;20046;-63
2022/09/05 00:29:36;;;;;;;5.57;3.72;;;20.10;99.90;;;;;;5010285;28;20041;-63
2022/09/05 00:32:36;;;;;;;6.70;3.90;;;20.00;99.90;;;;;;5012399;28;20072;-63
2022/09/05 00:35:28;;;;;;;6.80;3.97;;;20.00;99.90;;;;;;5013135;28;20041;-63
2022/09/05 00:37:56;;;;;;;5.28;3.75;;;20.00;99.90;;;;;;5012068;28;20050;-63
2022/09/05 00:40:34;;;;;;;5.07;4.25;;;20.00;99.90;;;;;;4979148;28;20046;-63
2022/09/05 00:43:13;;;;;;;8.63;4.40;;;19.90;99.90;;;;;;5012361;28;20537;-63
2022/09/05 00:45:46;;;;;;;5.97;4.25;;;19.90;99.90;;;;;;5014526;28;20042;-63
2022/09/05 00:48:22;;;;;;;6.40;4.40;;;19.90;99.90;;;;;;5012616;28;20038;-64
2022/09/05 00:51:09;;;;;;;7.78;4.30;;;19.80;99.90;;;;;;4994971;28;20034;-64
2022/09/05 00:53:45;;;;;;;6.70;4.63;;;19.80;99.90;;;;;;5012498;28;20121;-63
2022/09/05 00:56:31;;;;;;;6.25;4.32;;;19.70;99.90;;;;;;5015813;28;20038;-63
2022/09/05 00:59:25;;;;;;;5.72;4.30;;;19.70;99.90;;;;;;5012242;28;20566;-63
2022/09/05 01:02:03;;;;;;;5.78;4.53;;;19.70;99.90;;;;;;4994600;28;20078;-60
2022/09/05 01:04:43;;;;;;;6.70;4.80;;;19.70;99.90;;;;;;5020331;28;20041;-61
2022/09/05 01:07:27;;;;;;;5.57;4.78;;;19.60;99.90;;;;;;5016149;28;20053;-61
2022/09/05 01:10:18;;;;;;;5.68;4.80;;;19.60;99.90;;;;;;5016126;28;20041;-61
2022/09/05 01:13:18;;;;;;;6.55;4.68;;;19.50;99.90;;;;;;5015980;28;20116;-60
2022/09/05 01:16:04;;;;;;;8.00;4.78;;;19.50;99.90;;;;;;5005088;28;20042;-61
2022/09/05 01:18:46;;;;;;;5.88;5.13;;;19.50;99.90;;;;;;4998714;28;20076;-60
2022/09/05 01:21:30;;;;;;;5.78;4.40;;;19.40;99.90;;;;;;5017633;28;20038;-61
2022/09/05 01:24:08;;;;;;;7.55;4.78;;;19.50;99.90;;;;;;5000904;28;20358;-61
2022/09/05 01:27:13;;;;;;;8.32;4.65;;;19.40;99.90;;;;;;5021363;28;20164;-61
2022/09/05 01:30:02;;;;;;;5.80;4.78;;;19.40;99.90;;;;;;4981032;28;20050;-60
2022/09/05 01:32:38;;;;;;;6.28;4.75;;;19.30;99.90;;;;;;5015620;28;20041;-61
2022/09/05 01:35:35;;;;;;;6.63;5.07;;;19.40;99.90;;;;;;5025925;28;20485;-60
2022/09/05 01:38:18;;;;;;;5.47;4.55;;;19.30;99.90;;;;;;5015334;28;20057;-60
2022/09/05 01:41:09;;;;;;;5.70;4.13;;;19.30;99.90;;;;;;5015250;28;20137;-61
2022/09/05 01:44:01;;;;;;;5.72;4.60;;;19.30;99.90;;;;;;5015897;28;20038;-60
2022/09/05 01:46:29;;;;;;;6.72;4.57;;;19.30;99.90;;;;;;5002038;28;20060;-61
2022/09/05 01:48:55;;;;;;;5.18;4.20;;;19.30;99.90;;;;;;5015253;28;20351;-61
2022/09/05 01:51:38;;;;;;;7.68;4.70;;;19.20;99.90;;;;;;4998060;28;20049;-61
2022/09/05 01:54:07;;;;;;;6.00;4.88;;;19.20;99.90;;;;;;4999791;28;20124;-61
2022/09/05 01:57:01;;;;;;;6.50;4.80;;;19.20;99.90;;;;;;5016083;28;20137;-60
2022/09/05 01:59:54;;;;;;;5.43;4.38;;;19.10;99.90;;;;;;4978156;28;20058;-61
2022/09/05 02:02:50;;;;;;;6.40;4.70;;;19.10;99.90;;;;;;5014593;28;20486;-61
2022/09/05 02:05:50;;;;;;;8.30;4.53;;;19.10;99.90;;;;;;5020074;28;20066;-60
2022/09/05 02:08:38;;;;;;;7.35;4.20;;;19.10;99.90;;;;;;5015066;28;20026;-60
2022/09/05 02:11:15;;;;;;;7.45;5.13;;;19.00;99.90;;;;;;5015769;28;20044;-61
2022/09/05 02:14:02;;;;;;;7.47;4.70;;;19.00;99.90;;;;;;5015107;28;20037;-60
2022/09/05 02:16:43;;;;;;;8.73;5.15;;;19.00;99.90;;;;;;4996484;28;20193;-60
2022/09/05 02:19:08;;;;;;;7.80;4.90;;;19.00;99.90;;;;;;5015223;28;20041;-61
2022/09/05 02:21:37;;;;;;;6.53;4.90;;;18.90;99.90;;;;;;5014735;28;20076;-60
2022/09/05 02:24:15;;;;;;;8.02;5.18;;;18.90;99.90;;;;;;5016405;28;20060;-61
2022/09/05 02:27:04;;;;;;;9.13;5.38;;;18.90;99.90;;;;;;5019252;28;20443;-60
2022/09/05 02:29:39;;;;;;;6.68;5.43;;;18.90;99.90;;;;;;5014913;28;20029;-61
2022/09/05 02:32:37;;;;;;;8.38;5.57;;;18.80;99.90;;;;;;5014661;28;20387;-61
2022/09/05 02:35:13;;;;;;;6.20;5.10;;;18.80;99.90;;;;;;5006170;28;20038;-61
2022/09/05 02:38:01;;;;;;;5.68;5.03;;;18.70;99.90;;;;;;5014355;28;20056;-60
2022/09/05 02:40:35;;;;;;;6.43;4.78;;;18.70;99.90;;;;;;5014319;28;20333;-61
2022/09/05 02:43:24;;;;;;;6.25;5.25;;;18.70;99.90;;;;;;5014265;28;20099;-60
2022/09/05 02:46:03;;;;;;;9.50;5.50;;;18.70;99.90;;;;;;5015544;28;20088;-60
2022/09/05 02:49:06;;;;;;;6.65;5.38;;;18.70;99.90;;;;;;4997132;28;20059;-61
2022/09/05 02:51:36;;;;;;;7.85;5.15;;;18.70;99.90;;;;;;4982928;28;20483;-60
2022/09/05 02:54:32;;;;;;;7.82;6.22;;;18.60;99.90;;;;;;4997870;28;20383;-60
2022/09/05 02:57:09;;;;;;;7.13;5.85;;;18.60;99.90;;;;;;4994553;28;20272;-61
2022/09/05 03:00:11;;;;;;;6.78;5.53;;;18.60;99.90;;;;;;5014062;28;20514;-60
2022/09/05 03:03:01;;;;;;;7.13;5.68;;;18.60;99.90;;;;;;5013689;28;20064;-60
2022/09/05 03:05:46;;;;;;;7.45;6.18;;;18.50;99.90;;;;;;5018359;28;20085;-61
2022/09/05 03:08:30;;;;;;;8.23;6.18;;;18.50;99.90;;;;;;5013871;28;20043;-60
2022/09/05 03:11:33;;;;;;;7.93;6.43;;;18.50;99.90;;;;;;5013795;28;20325;-60
2022/09/05 03:14:40;;;;;;;7.65;6.70;;;18.40;99.90;;;;;;5003692;28;20045;-61
2022/09/05 03:17:08;;;;;;;9.85;6.80;;;18.40;99.90;;;;;;5000084;28;20050;-60
2022/09/05 03:19:56;;;;;;;8.00;6.50;;;18.40;99.90;;;;;;5014059;28;20143;-60
2022/09/05 03:22:30;;;;;;;9.32;6.78;;;18.40;99.90;;;;;;5013511;28;20042;-61
2022/09/05 03:25:08;;;;;;;8.38;6.90;;;18.30;99.90;;;;;;5021086;28;20077;-60
2022/09/05 03:28:06;;;;;;;12.45;7.32;;;18.30;99.90;;;;;;5013308;28;20034;-60
2022/09/05 03:31:00;;;;;;;7.63;6.88;;;18.30;99.90;;;;;;5013351;28;20056;-61
2022/09/05 03:34:01;;;;;;;8.75;6.93;;;18.30;99.90;;;;;;5013740;28;20055;-60
2022/09/05 03:36:58;;;;;;;7.30;6.60;;;18.30;99.90;;;;;;5001678;28;20390;-60
2022/09/05 03:39:39;;;;;;;8.27;7.05;;;18.30;99.90;;;;;;5013647;28;20041;-60
2022/09/05 03:42:37;;;;;;;7.90;6.72;;;18.20;99.90;;;;;;4995749;28;20041;-60
2022/09/05 03:45:33;;;;;;;9.93;6.85;;;18.30;99.90;;;;;;5014384;28;20037;-60
2022/09/05 03:48:31;;;;;;;10.95;7.22;;;18.20;99.90;;;;;;5012936;28;20383;-61
2022/09/05 03:50:59;;;;;;;10.00;7.35;;;18.20;99.90;;;;;;5012866;28;20129;-60
2022/09/05 03:54:03;;;;;;;8.18;7.03;;;18.20;99.90;;;;;;5013138;28;20399;-60
2022/09/05 03:56:56;;;;;;;7.70;6.90;;;18.10;99.90;;;;;;4995846;28;20052;-60
2022/09/05 03:59:45;;;;;;;8.40;6.63;;;18.10;99.90;;;;;;5013130;28;20088;-60
2022/09/05 04:02:15;;;;;;;7.97;7.18;;;18.10;99.90;;;;;;5012444;28;20062;-60
2022/09/05 04:04:40;;;;;;;10.60;6.80;;;18.10;99.90;;;;;;4996047;28;20049;-60
2022/09/05 04:07:15;;;;;;;9.18;7.38;;;18.10;99.90;;;;;;5012857;28;20049;-60
2022/09/05 04:09:59;;;;;;;8.55;7.00;;;18.10;99.90;;;;;;5012968;28;20073;-61
2022/09/05 04:12:35;;;;;;;9.10;7.32;;;18.00;99.90;;;;;;5012532;28;20048;-60
2022/09/05 04:15:10;;;;;;;8.10;7.30;;;18.00;99.90;;;;;;5013125;28;20519;-60
2022/09/05 04:17:45;;;;;;;8.60;6.78;;;17.90;99.90;;;;;;5012932;28;20038;-60
2022/09/05 04:20:34;;;;;;;7.68;6.95;;;18.00;99.90;;;;;;5012434;28;20113;-60
2022/09/05 04:23:23;;;;;;;8.02;7.05;;;18.00;99.90;;;;;;5012546;28;20439;-60
2022/09/05 04:26:09;;;;;;;9.43;7.53;;;18.00;99.90;;;;;;5019575;28;20042;-60
2022/09/05 04:29:13;;;;;;;7.72;6.82;;;18.00;99.90;;;;;;4996064;28;20334;-60
2022/09/05 04:32:04;;;;;;;;;;;18.00;99.90;;;;;;5012875;28;20107;-61
2022/09/05 04:35:00;;;;;;;9.77;6.95;;;17.90;99.90;;;;;;5016641;28;20000;-60
2022/09/05 04:37:38;;;;;;;8.80;7.40;;;17.90;99.90;;;;;;5015749;28;20042;-61
2022/09/05 04:40:29;;;;;;;10.13;7.20;;;17.90;99.90;;;;;;5001125;28;20041;-60
2022/09/05 04:43:12;;;;;;;9.98;7.45;;;17.90;99.90;;;;;;5012527;28;20036;-61
2022/09/05 04:45:48;;;;;;;11.10;8.02;;;17.90;99.90;;;;;;5025883;28;20041;-60
2022/09/05 04:48:19;;;;;;;8.18;7.38;;;17.90;99.90;;;;;;4999602;28;20049;-60
2022/09/05 04:51:06;;;;;;;9.88;7.95;;;17.90;99.90;;;;;;4998892;28;20078;-60
2022/09/05 04:53:59;;;;;;;9.15;8.07;;;17.90;99.90;;;;;;5000664;28;20125;-60
2022/09/05 04:56:35;;;;;;;9.20;8.27;;;17.80;99.90;;;;;;5023994;28;20113;-60
2022/09/05 04:59:08;;;;;;;9.43;8.52;;;17.80;99.90;;;;;;5030567;28;20033;-61
2022/09/05 05:01:39;;;;;;;;;;;17.70;99.90;;;;;;5028296;28;20093;-60
2022/09/05 05:04:16;;;;;;;11.00;8.63;;;17.70;99.90;;;;;;5029432;28;19943;-60
2022/09/05 05:06:54;;;;;;;10.52;9.07;;;17.70;99.90;;;;;;5027781;28;20462;-60
2022/09/05 05:09:41;;;;;;;10.10;8.60;;;17.60;99.90;;;;;;5029716;28;20367;-61
2022/09/05 05:12:29;;;;;;;11.57;8.98;;;17.60;99.90;;;;;;5028380;28;20128;-60
2022/09/05 05:15:02;;;;;;;10.48;8.98;;;17.70;99.90;;;;;;5027820;28;20068;-60
2022/09/05 05:18:10;;;;;;;10.32;9.30;;;17.70;99.90;;;;;;5028628;28;20049;-60
2022/09/05 05:21:00;;;;;;;10.80;9.55;;;17.70;99.90;;;;;;5025532;28;20171;-60
2022/09/05 05:23:50;;;;;;;10.82;9.73;;;17.70;99.90;;;;;;5022430;28;20041;-60
2022/09/05 05:26:25;;;;;;;11.10;9.98;;;17.60;99.90;;;;;;5012266;28;20455;-60
2022/09/05 05:28:58;;;;;;;11.15;10.05;;;17.60;99.90;;;;;;4995431;28;20477;-59
2022/09/05 05:31:35;;;;;;;11.45;10.30;;;17.60;99.90;;;;;;4995614;28;20485;-59
2022/09/05 05:34:36;;;;;;;11.63;9.88;;;17.60;99.90;;;;;;5013295;28;20082;-59
2022/09/05 05:37:30;;;;;;;12.48;10.93;;;17.60;99.90;;;;;;5024476;28;20447;-59
2022/09/05 05:40:05;;;;;;;12.20;10.95;;;17.60;99.90;;;;;;4995936;28;20489;-59
2022/09/05 05:42:32;;;;;;;12.43;10.75;;;17.60;99.90;;;;;;4997268;28;20045;-60
2022/09/05 05:44:58;;;;;;;12.20;10.55;;;17.70;99.90;;;;;;5022631;28;20038;-59
2022/09/05 05:47:32;;;;;;;11.43;10.10;;;17.70;99.90;;;;;;5012947;28;20261;-59
2022/09/05 05:50:43;;;;;;;12.13;10.15;;;17.80;99.90;;;;;;5008409;28;20061;-61
2022/09/05 05:53:33;;;;;;;14.55;10.40;;;17.90;99.90;;;;;;5012867;28;20049;-60
2022/09/05 05:56:37;;;;;;;11.52;10.27;;;18.20;99.90;;;;;;5019733;28;20054;-60
2022/09/05 05:59:06;;;;;;;13.57;10.00;;;18.50;99.90;;;;;;5008241;28;20038;-59
2022/09/05 06:02:09;;;;;;;11.30;10.20;;;18.60;99.90;;;;;;5011268;28;20071;-59
2022/09/05 06:04:53;;;;;;;11.20;9.55;;;18.80;99.90;;;;;;5007704;28;20180;-59
2022/09/05 06:07:42;;;;;;;10.35;9.32;;;19.30;99.90;;;;;;4982551;28;20362;-59
2022/09/05 06:10:59;;;;;;;10.57;9.57;;;20.00;99.90;;;;;;5018147;28;20052;-59
2022/09/05 06:13:59;;;;;;;10.82;9.30;;;20.40;99.90;;;;;;4988737;28;20049;-59
2022/09/05 06:16:27;;;;;;;10.10;9.10;;;20.90;99.90;;;;;;4994116;28;20762;-60
2022/09/05 06:19:10;;;;;;;11.23;9.57;;;21.20;99.90;;;;;;5013133;28;20041;-60
2022/09/05 06:21:54;;;;;;;9.98;8.98;;;21.30;99.90;;;;;;5016853;28;20042;-61
2022/09/05 06:24:39;;;;;;;11.05;9.30;;;21.40;99.90;;;;;;4999187;28;20048;-59
2022/09/05 06:27:10;;;;;;;11.68;8.57;;;21.70;99.90;;;;;;5029965;28;20048;-59
2022/09/05 06:30:07;;;;;;;10.63;9.07;;;21.90;99.90;;;;;;5017564;28;20036;-59
2022/09/05 06:33:04;;;;;;;12.20;8.57;;;22.00;99.90;;;;;;4985421;28;20435;-59
2022/09/05 06:35:47;;;;;;;9.55;8.57;;;22.20;99.90;;;;;;5010348;28;20367;-59
2022/09/05 06:38:21;;;;;;;9.88;8.70;;;22.20;99.90;;;;;;4987723;28;20056;-60
2022/09/05 06:41:01;;;;;;;10.57;8.00;;;22.20;99.90;;;;;;5000574;28;20119;-59
2022/09/05 06:43:51;;;;;;;10.23;8.43;;;22.30;99.90;;;;;;5009491;28;20046;-60
2022/09/05 06:46:34;;;;;;;9.25;7.95;;;22.50;99.90;;;;;;4989415;28;20041;-59
2022/09/05 06:49:16;;;;;;;9.13;7.68;;;22.50;99.90;;;;;;5023474;28;20037;-59
2022/09/05 06:51:55;;;;;;;12.68;7.78;;;22.80;99.90;;;;;;4998798;28;20046;-60
2022/09/05 06:54:36;;;;;;;9.55;7.57;;;23.10;99.90;;;;;;5012550;28;20416;-60
2022/09/05 06:57:39;;;;;;;10.80;8.07;;;23.30;99.90;;;;;;5008900;28;20120;-61
2022/09/05 07:00:21;;;;;;;10.40;7.63;;;23.50;99.60;;;;;;5012549;28;20113;-60
2022/09/05 07:03:15;;;;;;;12.52;8.02;;;23.60;99.00;;;;;;4993171;28;20128;-60
2022/09/05 07:05:55;;;;;;;8.63;7.80;;;23.60;99.60;;;;;;5020489;28;20355;-61
2022/09/05 07:08:43;;;;;;;9.30;7.53;;;23.40;99.70;;;;;;4976393;28;20370;-59
2022/09/05 07:11:38;;;;;;;9.38;7.38;;;23.10;99.90;;;;;;5009430;28;20049;-59
2022/09/05 07:14:19;;;;;;;9.77;8.02;;;22.90;99.90;;;;;;5003855;28;20053;-59
2022/09/05 07:17:05;;;;;;;9.57;8.63;;;22.80;99.90;;;;;;4984977;28;20046;-60
2022/09/05 07:19:44;;;;;;;9.65;8.13;;;22.80;99.90;;;;;;5007396;28;20049;-60
2022/09/05 07:22:18;;;;;;;10.13;7.97;;;22.80;99.90;;;;;;4997685;28;20359;-59
2022/09/05 07:24:49;;;;;;;10.32;8.05;;;22.90;99.90;;;;;;5002292;28;20374;-60
2022/09/05 07:27:40;;;;;;;9.00;8.10;;;23.10;99.90;;;;;;5028425;28;20053;-60
2022/09/05 07:30:06;;;;;;;9.82;8.32;;;23.20;99.90;;;;;;5026101;28;20033;-60
2022/09/05 07:32:42;;;;;;;10.13;7.80;;;23.30;99.90;;;;;;5013833;28;20104;-60
2022/09/05 07:35:18;;;;;;;12.98;9.13;;;23.40;99.90;;;;;;5015188;28;20374;-59
2022/09/05 07:37:45;;;;;;;10.45;9.30;;;23.40;99.90;;;;;;5013763;28;20045;-61
2022/09/05 07:40:18;;;;;;;10.45;8.45;;;23.50;99.90;;;;;;5012116;28;20083;-60
2022/09/05 07:42:55;;;;;;;12.02;9.35;;;23.60;99.90;;;;;;5025267;28;20113;-60
2022/09/05 07:45:27;;;;;;;10.25;9.20;;;23.70;99.90;;;;;;4997458;28;20046;-60
2022/09/05 07:48:00;;;;;;;11.48;9.07;;;23.80;99.90;;;;;;4996103;28;20080;-61
2022/09/05 07:50:27;;;;;;;13.63;9.13;;;23.80;99.90;;;;;;4996123;28;20042;-60
2022/09/05 07:52:56;;;;;;;9.82;8.80;;;23.90;99.90;;;;;;4996103;28;20115;-60
2022/09/05 07:55:26;;;;;;;10.48;9.02;;;24.00;99.90;;;;;;5001639;28;20065;-60
2022/09/05 07:57:56;;;;;;;10.27;8.50;;;24.00;99.90;;;;;;5013039;28;20531;-60
2022/09/05 08:00:25;;;;;;;11.35;8.32;;;24.10;99.90;;;;;;4989414;28;20117;-60
2022/09/05 08:02:50;;;;;;;12.43;8.93;;;24.30;99.90;;;;;;4995900;28;20065;-60
2022/09/05 08:05:21;;;;;;;13.70;8.40;;;24.30;99.90;;;;;;5011243;28;20058;-61
2022/09/05 08:08:00;;;;;;;11.55;8.70;;;24.40;99.90;;;;;;4999565;28;20392;-61
2022/09/05 08:10:34;;;;;;;11.80;8.65;;;24.50;99.90;;;;;;5012869;28;20475;-60
2022/09/05 08:13:06;;;;;;;13.73;8.68;;;24.60;99.90;;;;;;5005101;28;20347;-60
2022/09/05 08:15:33;;;;;;;9.38;8.32;;;24.60;99.90;;;;;;5011303;28;20041;-61
2022/09/05 08:18:15;;;;;;;8.77;7.88;;;24.60;99.90;;;;;;5007251;28;20138;-60
2022/09/05 08:20:53;;;;;;;11.38;7.90;;;24.60;99.90;;;;;;5007931;28;20037;-61
2022/09/05 08:23:19;;;;;;;9.98;7.70;;;24.70;99.90;;;;;;5013125;28;20044;-60
2022/09/05 08:25:58;;;;;;;11.10;8.07;;;24.80;99.90;;;;;;5018100;28;20034;-60
2022/09/05 08:28:39;;;;;;;9.20;7.35;;;24.80;99.90;;;;;;5013186;28;20117;-60
2022/09/05 08:31:19;;;;;;;10.45;7.80;;;25.00;99.90;;;;;;5013119;28;20056;-59
2022/09/05 08:33:48;;;;;;;9.65;7.60;;;25.10;99.90;;;;;;5016420;28;20052;-60
2022/09/05 08:36:36;;;;;;;9.43;7.80;;;25.20;99.90;;;;;;5023919;28;20057;-60
2022/09/05 08:39:05;;;;;;;9.95;7.55;;;25.20;99.90;;;;;;5012890;28;20045;-60
2022/09/05 08:41:46;;;;;;;10.80;7.18;;;25.20;99.90;;;;;;5013062;28;20045;-60
2022/09/05 08:44:41;;;;;;;10.10;7.65;;;25.40;99.90;;;;;;5013316;28;20070;-59
2022/09/05 08:47:42;;;;;;;9.07;6.78;;;25.60;99.70;;;;;;4988867;28;20076;-60
2022/09/05 08:50:18;;;;;;;8.10;6.68;;;25.70;99.80;;;;;;4984553;28;20103;-61
2022/09/05 08:53:22;;;;;;;13.05;7.20;;;25.70;99.80;;;;;;5012559;28;20056;-61
2022/09/05 08:55:56;;;;;;;11.70;7.53;;;25.80;99.70;;;;;;5026026;28;20037;-60
2022/09/05 08:58:59;;;;;;;8.70;6.65;;;25.90;99.30;;;;;;5012988;28;20297;-60
2022/09/05 09:01:43;;;;;;;9.38;6.93;;;25.90;99.20;;;;;;4981351;28;20057;-60
2022/09/05 09:04:41;;;;;;;9.18;7.45;;;26.00;99.20;;;;;;4995476;28;20104;-60
2022/09/05 09:07:26;;;;;;;9.57;6.85;;;26.10;99.30;;;;;;5003423;28;20370;-60
2022/09/05 09:10:10;;;;;;;9.65;7.03;;;26.20;99.20;;;;;;5001270;28;20044;-60
2022/09/05 09:12:54;;;;;;;7.43;6.32;;;26.40;99.20;;;;;;5032813;28;20131;-60
2022/09/05 09:15:35;;;;;;;8.88;6.78;;;26.40;99.00;;;;;;4989389;28;20046;-59
2022/09/05 09:18:15;;;;;;;9.10;5.55;;;26.40;99.10;;;;;;5002865;28;20038;-60
2022/09/05 09:20:54;;;;;;;8.95;6.82;;;26.50;99.00;;;;;;5004891;28;20054;-60
2022/09/05 09:23:39;;;;;;;9.98;6.07;;;26.70;98.90;;;;;;5011964;28;20046;-60
2022/09/05 09:26:15;;;;;;;7.43;5.95;;;26.90;98.60;;;;;;5016577;28;20045;-61
2022/09/05 09:28:50;;;;;;;9.75;5.60;;;27.10;98.50;;;;;;5029488;28;20377;-61
2022/09/05 09:31:25;;;;;;;11.65;5.70;;;27.20;98.40;;;;;;5016374;28;20046;-60
2022/09/05 09:34:24;;;;;;;8.07;4.57;;;27.30;97.90;;;;;;5026861;28;20045;-59
2022/09/05 09:37:07;;;;;;;7.50;4.05;;;27.30;97.90;;;;;;4983744;28;20064;-60
2022/09/05 09:39:54;;;;;;;6.75;4.28;;;27.50;97.90;;;;;;5016433;28;20116;-61
2022/09/05 09:42:29;;;;;;;8.50;4.15;;;27.50;97.50;;;;;;5016037;28;20041;-60
2022/09/05 09:45:13;;;;;;;11.10;4.15;;;27.60;97.50;;;;;;5004016;28;20038;-60
2022/09/05 09:47:42;;;;;;;7.68;4.20;;;27.80;97.20;;;;;;5031671;28;20045;-62
2022/09/05 09:50:17;;;;;;;5.43;3.60;;;27.90;96.90;;;;;;5027984;28;20046;-60
2022/09/05 09:52:52;;;;;;;5.15;3.80;;;28.00;96.70;;;;;;5015977;28;20041;-60
2022/09/05 09:55:45;;;;;;;5.35;3.38;;;28.00;96.40;;;;;;5007403;28;20361;-61
2022/09/05 09:58:11;;;;;;;5.72;3.60;;;28.00;96.30;;;;;;4985755;28;20038;-60
2022/09/05 10:00:50;;;;;;;5.05;3.30;;;27.90;96.30;;;;;;5017150;28;20045;-60
2022/09/05 10:03:57;;;;;;;6.07;3.90;;;28.00;96.50;;;;;;5015417;28;20392;-60
2022/09/05 10:06:44;;;;;;;5.63;3.60;;;28.10;96.30;;;;;;4997097;28;20045;-61
2022/09/05 10:09:17;;;;;;;5.18;3.67;;;28.10;96.10;;;;;;5016649;28;20037;-60
2022/09/05 10:11:58;;;;;;;5.88;3.72;;;28.10;96.00;;;;;;5033494;28;20044;-60
2022/09/05 10:14:36;;;;;;;5.90;3.42;;;28.20;96.00;;;;;;5030417;28;20052;-60
2022/09/05 10:17:33;;;;;;;5.35;3.00;;;28.30;95.80;;;;;;5014244;28;20038;-60
2022/09/05 10:20:09;;;;;;;6.15;2.60;;;28.30;95.70;;;;;;5012982;28;20064;-60
2022/09/05 10:22:54;;;;;;;6.20;3.55;;;28.50;95.80;;;;;;5010128;28;20471;-60
2022/09/05 10:25:34;;;;;;;7.43;3.75;;;28.60;95.70;;;;;;5022891;28;20045;-60
2022/09/05 10:28:36;;;;;;;6.97;3.20;;;28.70;95.30;;;;;;5030006;28;20505;-61
2022/09/05 10:31:17;;;;;;;10.48;3.63;;;28.70;95.10;;;;;;5033367;28;20520;-60
2022/09/05 10:33:50;;;;;;;5.85;3.35;;;28.70;95.40;;;;;;5011079;28;20037;-60
2022/09/05 10:36:23;;;;;;;4.57;3.22;;;28.70;95.30;;;;;;5022231;28;20459;-61
2022/09/05 10:39:24;;;;;;;4.35;3.05;;;28.80;95.20;;;;;;5020050;28;20037;-61
2022/09/05 10:42:01;;;;;;;6.00;2.40;;;28.90;94.70;;;;;;5014007;28;20123;-60
2022/09/05 10:44:56;;;;;;;4.53;3.30;;;29.00;94.90;;;;;;5025180;28;20056;-60
2022/09/05 10:47:47;;;;;;;5.38;2.95;;;29.00;94.90;;;;;;5030207;28;20041;-61
2022/09/05 10:50:51;;;;;;;7.90;3.28;;;29.10;94.70;;;;;;5024311;28;20045;-61
2022/09/05 10:53:25;;;;;;;5.22;3.13;;;29.20;94.50;;;;;;4995217;28;20050;-61
2022/09/05 10:56:13;;;;;;;4.55;2.88;;;29.20;94.30;;;;;;5014015;28;20038;-60
2022/09/05 10:59:00;;;;;;;4.97;2.55;;;29.20;94.20;;;;;;5008410;28;20044;-60
2022/09/05 11:01:40;;;;;;;6.47;2.30;;;29.30;94.20;;;;;;5011579;28;20065;-60
2022/09/05 11:04:27;;;;;;;4.25;2.45;;;29.30;93.90;;;;;;5002734;28;20037;-60
2022/09/05 11:07:02;;;;;;;5.22;2.85;;;29.40;93.60;;;;;;5023721;28;20458;-60
2022/09/05 11:09:33;;;;;;;6.47;2.88;;;29.30;93.90;;;;;;5025132;28;20088;-60
2022/09/05 11:12:53;;;;;;;7.00;2.60;;;29.50;94.20;;;;;;5016324;28;20044;-60
2022/09/05 11:15:37;;;;;;;3.58;2.40;;;29.50;94.10;;;;;;4970546;28;20437;-60
2022/09/05 11:18:21;;;;;;;2.55;2.25;;;29.50;93.50;;;;;;4982382;28;20352;-63
2022/09/05 11:21:18;;;;;;;4.90;2.55;;;29.50;93.40;;;;;;4994941;28;20099;-60
2022/09/05 11:23:55;;;;;;;2.80;2.30;;;29.50;93.30;;;;;;5014818;28;20038;-61
2022/09/05 11:26:45;;;;;;;3.20;2.35;;;29.60;93.40;;;;;;5011483;28;20045;-61
2022/09/05 11:29:21;;;;;;;7.70;2.85;;;29.70;93.10;;;;;;5004841;28;20103;-60
2022/09/05 11:32:08;;;;;;;5.60;2.25;;;29.80;92.70;;;;;;5020482;28;20045;-60
2022/09/05 11:34:59;;;;;;;5.70;2.25;;;29.90;92.70;;;;;;5019935;28;20332;-60
2022/09/05 11:37:39;;;;;;;4.53;2.45;;;30.10;93.00;;;;;;5017772;28;20113;-60
2022/09/05 11:40:43;;;;;;;4.88;2.53;;;30.20;92.80;;;;;;4994421;28;20459;-60
2022/09/05 11:43:35;;;;;;;4.10;2.28;;;30.20;92.20;;;;;;4961325;28;20091;-61
2022/09/05 11:46:11;;;;;;;3.10;2.28;;;30.20;91.00;;;;;;5005158;28;20044;-60
2022/09/05 11:49:16;;;;;;;2.72;1.85;;;30.30;91.10;;;;;;4987725;28;20037;-60
2022/09/05 11:51:50;;;;;;;4.40;2.17;;;30.40;90.10;;;;;;4984090;28;20133;-61
2022/09/05 11:54:40;;;;;;;3.70;1.92;;;30.50;90.30;;;;;;4995305;28;20478;-63
2022/09/05 11:57:05;;;;;;;4.28;2.10;;;30.60;90.40;;;;;;5012976;28;20038;-61
2022/09/05 11:59:51;;;;;;;2.22;1.98;;;30.80;90.50;;;;;;4969722;28;20119;-61
2022/09/05 12:02:48;;;;;;;3.88;2.13;;;30.80;90.70;;;;;;4998159;28;20050;-61
2022/09/05 12:05:53;;;;;;;4.25;2.20;;;30.80;90.70;;;;;;4989410;28;20097;-61
2022/09/05 12:08:38;;;;;;;3.88;2.15;;;30.70;90.00;;;;;;4979252;28;20046;-62
2022/09/05 12:11:16;;;;;;;5.13;2.53;;;30.60;90.50;;;;;;4985724;28;20133;-61
2022/09/05 12:14:03;;;;;;;2.72;1.95;;;30.60;90.70;;;;;;4994375;28;20050;-60
2022/09/05 12:16:54;;;;;;;3.60;2.20;;;30.50;90.90;;;;;;4980799;28;20046;-61
2022/09/05 12:19:34;;;;;;;2.88;2.08;;;30.40;90.20;;;;;;4996186;28;20046;-61
2022/09/05 12:22:16;;;;;;;3.47;2.25;;;30.30;90.30;;;;;;4980421;28;20391;-60
2022/09/05 12:25:02;;;;;;;3.92;2.28;;;30.40;90.20;;;;;;4992409;28;20033;-60
2022/09/05 12:27:31;;;;;;;6.47;2.75;;;30.30;90.50;;;;;;4995474;28;20058;-61
2022/09/05 12:30:06;;;;;;;3.53;2.35;;;30.40;90.50;;;;;;5006705;28;20045;-61
2022/09/05 12:32:32;;;;;;;3.25;2.00;;;30.30;90.20;;;;;;4996851;28;20465;-61
2022/09/05 12:35:02;;;;;;;5.45;2.30;;;30.40;90.00;;;;;;4983162;28;20503;-61
2022/09/05 12:37:36;;;;;;;3.70;2.17;;;30.40;89.80;;;;;;5015053;28;20084;-61
2022/09/05 12:40:16;;;;;;;2.75;2.13;;;30.50;89.80;;;;;;5009336;28;20417;-61
2022/09/05 12:42:55;;;;;;;4.90;2.20;;;30.60;89.90;;;;;;4996827;28;20088;-61
2022/09/05 12:45:43;;;;;;;3.28;2.42;;;30.50;89.90;;;;;;5019046;28;20453;-60
2022/09/05 12:48:21;;;;;;;4.55;2.22;;;30.50;89.70;;;;;;5006708;28;20128;-61
2022/09/05 12:51:22;;;;;;;3.55;2.20;;;30.50;90.00;;;;;;5006676;28;20118;-60
2022/09/05 12:54:00;;;;;;;4.53;2.30;;;30.50;89.60;;;;;;5011536;28;20474;-61
2022/09/05 12:56:34;;;;;;;3.75;2.03;;;30.40;90.00;;;;;;5017958;28;20035;-62
2022/09/05 12:59:04;;;;;;;4.20;2.25;;;30.50;90.00;;;;;;5004919;28;20224;-60
2022/09/05 13:01:39;;;;;;;4.63;2.22;;;30.50;90.00;;;;;;5002959;28;20060;-60
2022/09/05 13:04:14;;;;;;;4.63;2.20;;;30.60;90.10;;;;;;4982881;28;20061;-62
2022/09/05 13:06:45;;;;;;;3.40;2.30;;;30.60;90.00;;;;;;5016353;28;20029;-61
2022/09/05 13:09:55;;;;;;;3.70;2.30;;;30.70;90.10;;;;;;5016064;28;20529;-61
2022/09/05 13:12:30;;;;;;;4.32;2.25;;;30.70;89.80;;;;;;4936550;29;20082;-61
2022/09/05 13:15:11;;;;;;;4.78;2.50;;;30.70;90.00;;;;;;4920192;29;20044;-61
2022/09/05 13:17:50;;;;;;;4.13;2.40;;;30.60;89.90;;;;;;4979631;28;20054;-61
2022/09/05 13:20:38;;;;;;;3.35;2.22;;;30.70;89.70;;;;;;5001420;28;20041;-61
2022/09/05 13:23:24;;;;;;;4.78;2.13;;;30.70;89.70;;;;;;5015766;28;20542;-61
2022/09/05 13:25:59;;;;;;;3.08;2.30;;;30.80;89.00;;;;;;5017800;28;20030;-61
2022/09/05 13:28:34;;;;;;;3.75;2.20;;;30.80;88.70;;;;;;5015819;28;20041;-62
2022/09/05 13:31:06;;;;;;;4.95;2.25;;;30.90;88.90;;;;;;4998287;28;20061;-61
2022/09/05 13:33:44;;;;;;;2.80;2.03;;;30.80;88.00;;;;;;5023775;28;20346;-61
2022/09/05 13:36:29;;;;;;;6.22;2.50;;;30.70;88.20;;;;;;5006784;28;20508;-61
2022/09/05 13:39:06;;;;;;;3.72;2.63;;;30.70;87.90;;;;;;5015382;28;20042;-60
2022/09/05 13:41:45;;;;;;;5.03;2.20;;;30.60;88.30;;;;;;5015520;28;20038;-60
2022/09/05 13:44:17;;;;;;;2.83;2.03;;;30.60;88.00;;;;;;5006934;28;20087;-61
2022/09/05 13:47:01;;;;;;;4.05;2.13;;;30.70;88.40;;;;;;4998158;28;20129;-62
2022/09/05 13:49:43;;;;;;;3.20;2.15;;;30.80;88.70;;;;;;5015228;28;20048;-62
2022/09/05 13:52:20;;;;;;;4.70;2.10;;;30.80;87.90;;;;;;5019617;28;20188;-61
2022/09/05 13:54:50;;;;;;;3.20;2.00;;;30.80;88.10;;;;;;5015637;28;20052;-60
2022/09/05 13:57:27;;;;;;;4.60;2.55;;;30.90;88.00;;;;;;5015354;28;20049;-61
2022/09/05 14:00:05;;;;;;;2.75;2.13;;;31.00;87.30;;;;;;4993981;28;20505;-62
2022/09/05 14:03:01;;;;;;;4.15;2.15;;;31.10;86.20;;;;;;5022836;28;20107;-60
2022/09/05 14:05:45;;;;;;;3.90;2.25;;;31.10;87.10;;;;;;5004689;28;20516;-62
2022/09/05 14:08:32;;;;;;;3.47;2.20;;;31.10;86.30;;;;;;5017482;28;20660;-61